首页
METAR-TAF:

METAR-TAF

机场 :

Cape Peel West, 努那武特, 加拿大

纬度: 69-02N, 经度: 107-49W, 海拔: 165米

当前天气观测

该预报发布于28分钟前的09:00 UTC
风速8节,风向
温度 3°C
湿度 93%
气压 1019 hPa
多云层高于21000英尺
多云层高于23000英尺
阴天层高于25000英尺

METAR: CWPX 180900Z AUTO 36008KT ////SM //// BKN210 BKN230 OVC250 03/02 A3010

时间: 03:28 (09:28 UTC)


TAF: 丢失

超过4000个机场的气象观测和天气预报(METAR&TAF报告)。

可查询的气象台以黄色和红色小点在地图上表示。

将鼠标移到小点上方,可查看气象台名称。

然后点击查看天气观测和预报。

如需切换地图:点击带黑十字的绿色按钮放大地图;点击带横线的绿色按钮缩小地图;或者点击绿色箭头查看邻近地区的地图。


METAR-TAF: